Thursday, August 16, 2018, 9:57 AM EDT
Back to Local

KBML, Berlin Municipal Airport

Location: Milan, NH, United States Lat: 44.583
Local Time: 9:57 AM EDT (13:57 GMT) Lon: -71.183
Time Zone: US/Eastern Elev: 1158 ft

Show me the last for .
Show Coded

Time T Td Feel RH Dir Speed Gust Alt SLP Vis Weather Sky Remarks
2018-08-16 08:52 71 66 76 84 - Calm - 30.01 29.99 10 BKN070 None
2018-08-16 07:52 68 66 - 93 - Calm - 30.00 29.99 8 FEW034 OVC055 24-hr Precip Total (8am): 0.19"
6-hr Min Temp (8am): 62.1°F
6-hr Max Temp (8am): 68.0°F
2018-08-16 06:52 65 64 - 96 - Calm - 29.99 29.97 6 BR FEW035 OVC055 None
2018-08-16 06:11 64 64 - 100 - Calm - 29.98 - 7 FEW002 SCT022 OVC034 None
2018-08-16 05:52 65 64 - 96 - Calm - 29.98 29.96 7 FEW002 BKN024 OVC055 None
2018-08-16 04:59 64 63 - 96 - Calm - 29.96 - 8 FEW001 BKN035 OVC045 None
2018-08-16 04:52 63 62 - 96 - Calm - 29.96 29.95 7 BKN037 BKN048 OVC090 None
2018-08-16 03:52 63 63 - 100 - Calm - 29.94 29.93 7 FEW080 None
2018-08-16 02:52 65 65 - 100 - Calm - 29.95 29.93 5 BR OVC090 None
2018-08-16 01:52 65 64 - 96 - Calm - 29.94 29.92 7 CLR 1-hr Precip Total: 0.01"
6-hr Precip Total (2am): 0.19"
6-hr Min Temp (2am): 64.9°F
6-hr Max Temp (2am): 71.1°F
2018-08-16 01:05 68 66 - 93 - Calm - 29.95 - 10 FEW025 BKN050 OVC110 None
2018-08-16 00:52 68 67 - 96 - Calm - 29.95 29.93 9 SCT023 BKN028 BKN043 24-hr Min Temp (1am): 61.0°F
24-hr Max Temp (1am): 82.9°F
2018-08-16 00:24 69 68 - 96 10° 5 - 29.95 - 8 BKN025 OVC038 None
2018-08-16 00:09 69 68 - 96 - Calm - 29.95 - 7 VCTS FEW019 BKN027 OVC065 None
2018-08-16 00:00 69 68 - 96 - Calm - 29.95 - 7 TS SCT029 BKN039 OVC065 None
2018-08-15 23:52 69 68 - 96 - Calm - 29.95 29.93 6 VCTS BR FEW031 BKN060 OVC100 None
2018-08-15 23:47 70 68 - 94 190° 5 - 29.94 - 8 VCTS FEW031 BKN065 BKN110 None
2018-08-15 23:19 69 68 - 96 - Calm - 29.93 - 8 FEW034 BKN080 BKN100 None
2018-08-15 22:58 70 68 - 93 - Calm - 29.93 - 9 TS FEW042 SCT070 BKN090 None
2018-08-15 22:52 70 68 - 93 - Calm - 29.93 29.91 9 FEW042 BKN090 OVC120 1-hr Precip Total: 0.18"
6-hr Precip Total (11pm): 0.18"
2018-08-15 22:49 70 68 - 94 - Calm - 29.93 - 4 -RA BR FEW040 BKN070 OVC110 1-hr Precip Total: 0.18"
2018-08-15 22:41 70 69 - 96 - Calm - 29.93 - 1 +RA BR SCT041 BKN070 OVC110 1-hr Precip Total: 0.18"
2018-08-15 22:26 70 68 - 93 - Calm - 29.93 - 3 -RA BR FEW044 BKN075 OVC100 1-hr Precip Total: 0.09"
2018-08-15 22:18 69 68 - 96 150° 3 - 29.93 - 1 +RA BR SCT044 BKN080 OVC100 1-hr Precip Total: 0.09"
2018-08-15 22:03 70 68 - 93 350° 5 - 29.93 - 7 -RA FEW049 BKN075 OVC100 1-hr Precip Total: 0.01"
2018-08-15 21:52 69 67 - 92 - Calm - 29.93 29.92 10 VCTS SCT050 BKN070 BKN090 None
2018-08-15 21:45 69 67 - 92 - Calm - 29.93 - 9 VCTS FEW047 BKN065 None
2018-08-15 20:52 70 67 - 90 - Calm - 29.91 29.90 10 BKN065 None
2018-08-15 19:52 71 68 76 90 - Calm - 29.89 29.88 9 CLR 6-hr Min Temp (8pm): 71.1°F
6-hr Max Temp (8pm): 82.9°F
2018-08-15 18:52 80 66 83 62 - Calm - 29.87 29.85 10 FEW050 None
2018-08-15 17:52 81 65 83 58 - Calm - 29.86 29.85 10 CLR None
2018-08-15 16:52 82 64 84 54 Variable 6 - 29.85 29.83 10 CLR None
2018-08-15 15:52 82 65 84 56 Variable 7 - 29.85 29.84 10 CLR None
2018-08-15 14:52 83 68 86 60 Variable 5 - 29.85 29.83 10 CLR None
2018-08-15 13:52 81 69 85 67 Variable 6 - 29.86 29.84 10 CLR 6-hr Min Temp (2pm): 64.0°F
6-hr Max Temp (2pm): 82.0°F
2018-08-15 12:52 81 69 85 67 Variable 3 - 29.87 29.85 10 FEW100 None
2018-08-15 12:45 81 68 84 64 Variable 3 - 29.87 - 10 FEW100 None
2018-08-15 12:30 80 66 83 62 Variable 7 - 29.87 - 10 VCTS FEW050 SCT080 SCT100 None
2018-08-15 11:52 77 67 80 71 Variable 6 - 29.87 29.85 10 BKN032 BKN048 None
2018-08-15 10:52 79 66 82 64 - Calm - 29.88 29.86 10 SCT025 None

Support USWX by starting your Amazon purchase here.